Time;durP1;ratioP1;P1;durP2;ratioP2;P2;SDS_P1;SDS_P2;PMS_P1;PMS_P2;Temp;Humidity;BMP_temperature;BMP_pressure;BME280_temperature;BME280_humidity;BME280_pressure;Samples;Min_cycle;Max_cycle;Signal;HPM_P1;HPM_P2
2022/12/17 14:36:18;;;;;;;16.32;11.75;;;;;;;3.37;91.42;98703.70;1831027;78;22719;-39
2022/12/17 14:39:01;;;;;;;18.35;12.95;;;;;;;3.49;90.81;98705.87;1810085;79;20973;-39
2022/12/17 14:44:24;;;;;;;11.70;9.20;;;;;;;3.62;91.07;98704.05;1816553;79;20922;-39
2022/12/17 14:47:13;;;;;;;12.05;10.05;;;;;;;3.71;90.62;98695.36;1816773;79;21451;-39
2022/12/17 14:49:54;;;;;;;12.50;9.93;;;;;;;3.79;89.69;98694.48;1816595;79;20929;-39
2022/12/17 14:52:43;;;;;;;10.43;7.72;;;;;;;3.83;88.92;98690.58;1797072;79;20941;-39
2022/12/17 14:55:37;;;;;;;6.92;5.90;;;;;;;3.78;88.08;98706.31;1816794;79;21128;-38
2022/12/17 14:58:14;;;;;;;4.25;3.75;;;;;;;3.69;86.58;98726.27;1816828;78;21032;-39
2022/12/17 15:00:47;;;;;;;5.15;4.20;;;;;;;3.53;85.51;98739.52;1816547;78;20953;-39
2022/12/17 15:03:18;;;;;;;5.75;4.55;;;;;;;3.44;85.31;98745.47;1816603;78;21015;-39
2022/12/17 15:05:50;;;;;;;6.20;4.30;;;;;;;3.35;85.27;98750.11;1816597;79;21526;-39
2022/12/17 15:08:17;;;;;;;6.42;4.78;;;;;;;3.24;85.17;98754.31;1816841;79;21078;-39
2022/12/17 15:10:43;;;;;;;7.30;5.25;;;;;;;3.22;85.26;98753.84;1816518;78;20933;-39
2022/12/17 15:13:10;;;;;;;6.03;5.22;;;;;;;3.24;84.92;98775.73;1816653;78;20992;-39
2022/12/17 15:15:36;;;;;;;7.03;5.00;;;;;;;3.24;84.57;98785.11;1816586;79;21020;-39
2022/12/17 15:18:04;;;;;;;6.97;5.08;;;;;;;3.14;84.68;98770.20;1816713;79;21001;-40
2022/12/17 15:20:30;;;;;;;6.22;5.22;;;;;;;3.08;84.91;98768.03;1816915;79;21494;-41
2022/12/17 15:22:57;;;;;;;5.30;4.35;;;;;;;3.10;85.09;98759.13;1816675;79;21553;-39
2022/12/17 15:25:24;;;;;;;5.15;4.42;;;;;;;3.15;84.74;98766.98;1816684;78;20960;-39
2022/12/17 15:27:50;;;;;;;5.03;4.03;;;;;;;3.21;84.57;98774.48;1816731;78;21020;-39
2022/12/17 15:30:17;;;;;;;4.80;4.17;;;;;;;3.14;84.38;98769.42;1816539;79;20979;-39
2022/12/17 15:32:45;;;;;;;5.95;4.45;;;;;;;3.03;84.71;98763.09;1816485;79;23147;-39
2022/12/17 15:35:12;;;;;;;5.03;4.33;;;;;;;3.00;84.80;98777.69;1805304;78;20870;-39
2022/12/17 15:37:39;;;;;;;5.80;4.53;;;;;;;3.00;84.95;98779.79;1805422;79;20913;-39
2022/12/17 15:40:10;;;;;;;4.62;4.03;;;;;;;3.04;84.87;98771.37;1805393;79;20894;-39
2022/12/17 15:45:22;;;;;;;5.15;4.12;;;;;;;3.24;85.39;98766.36;1805254;79;21276;-39
2022/12/17 15:47:48;;;;;;;3.90;3.45;;;;;;;3.31;85.27;98770.63;1804689;79;21052;-39
2022/12/17 15:50:15;;;;;;;3.80;3.10;;;;;;;3.39;84.81;98772.45;1804818;79;20886;-39
2022/12/17 15:52:42;;;;;;;3.65;3.12;;;;;;;3.45;84.21;98784.56;1804802;79;21012;-39
2022/12/17 15:55:10;;;;;;;3.37;2.80;;;;;;;3.47;83.47;98785.82;1799761;79;21006;-39
2022/12/17 15:57:37;;;;;;;3.10;2.80;;;;;;;3.38;83.31;98790.45;1804695;79;23151;-39
2022/12/17 16:00:06;;;;;;;3.33;3.02;;;;;;;3.33;83.48;98792.53;1804706;79;20941;-39
2022/12/17 16:02:32;;;;;;;3.27;2.83;;;;;;;3.27;83.43;98789.81;1804812;79;20913;-39
2022/12/17 16:04:59;;;;;;;3.20;2.90;;;;;;;3.20;83.20;98793.55;1800133;79;20981;-39
2022/12/17 16:07:26;;;;;;;3.30;2.70;;;;;;;3.14;82.92;98801.55;1804607;79;22084;-39
2022/12/17 16:09:52;;;;;;;3.37;3.08;;;;;;;3.06;83.08;98806.63;1804773;79;21311;-39
2022/12/17 16:12:19;;;;;;;3.62;3.25;;;;;;;2.98;83.52;98806.13;1804634;79;21056;-39
2022/12/17 16:14:45;;;;;;;3.50;3.17;;;;;;;2.91;83.88;98811.73;1804647;79;21029;-39
2022/12/17 16:17:12;;;;;;;3.10;2.80;;;;;;;2.89;83.97;98816.09;1804765;79;20962;-39
2022/12/17 16:19:38;;;;;;;3.17;2.50;;;;;;;2.87;83.94;98809.47;1804767;79;21096;-40
2022/12/17 16:22:05;;;;;;;3.30;2.83;;;;;;;2.87;84.08;98806.79;1805198;79;21873;-39
2022/12/17 16:24:33;;;;;;;3.92;2.87;;;;;;;2.81;84.31;98813.45;1804519;79;21593;-39
2022/12/17 16:27:00;;;;;;;2.72;2.50;;;;;;;2.72;84.52;98817.48;1804698;79;21035;-39
2022/12/17 16:29:26;;;;;;;2.20;2.00;;;;;;;2.64;84.72;98819.64;1804743;79;20996;-39
2022/12/17 16:31:53;;;;;;;2.52;2.33;;;;;;;2.64;84.90;98820.98;1804948;79;21009;-39
2022/12/17 16:34:19;;;;;;;2.12;1.72;;;;;;;2.64;84.94;98830.34;1805089;79;23164;-39
2022/12/17 16:36:46;;;;;;;2.55;2.20;;;;;;;2.58;85.21;98835.08;1813947;79;21475;-39
2022/12/17 16:39:16;;;;;;;2.00;1.70;;;;;;;2.50;85.32;98843.14;1814068;78;20945;-39
2022/12/17 16:41:43;;;;;;;2.20;1.77;;;;;;;2.48;85.42;98856.03;1814206;78;20950;-39
2022/12/17 16:44:09;;;;;;;3.25;1.67;;;;;;;2.52;85.25;98860.42;1814162;79;20969;-39
2022/12/17 16:46:41;;;;;;;1.98;1.70;;;;;;;2.53;85.12;98873.25;1814176;78;21818;-39
2022/12/17 16:49:15;;;;;;;2.37;1.80;;;;;;;2.48;85.03;98870.75;1813996;79;20929;-39
2022/12/17 16:51:42;;;;;;;2.20;1.70;;;;;;;2.42;85.20;98874.13;1814025;78;20941;-39
2022/12/17 16:54:17;;;;;;;1.55;1.40;;;;;;;2.40;85.27;98876.36;1814305;79;20965;-39
2022/12/17 16:56:44;;;;;;;2.00;1.47;;;;;;;2.48;85.12;98877.44;1814171;78;21534;-39
2022/12/17 16:59:12;;;;;;;1.85;1.57;;;;;;;2.49;84.93;98872.33;1813894;79;23127;-39
2022/12/17 17:01:40;;;;;;;1.75;1.50;;;;;;;2.45;85.07;98882.09;1814038;78;20964;-39
2022/12/17 17:04:07;;;;;;;2.12;1.45;;;;;;;2.38;85.01;98885.79;1814317;78;20992;-39
2022/12/17 17:06:44;;;;;;;1.57;1.30;;;;;;;2.32;85.09;98901.23;1814012;79;21510;-39
2022/12/17 17:09:11;;;;;;;1.77;1.35;;;;;;;2.33;84.98;98903.34;1814010;78;21013;-39
2022/12/17 17:11:38;;;;;;;1.20;1.10;;;;;;;2.32;85.02;98909.81;1813863;79;21223;-39
2022/12/17 17:14:05;;;;;;;1.40;1.30;;;;;;;2.28;85.10;98908.30;1813713;79;21505;-39
2022/12/17 17:16:33;;;;;;;1.10;0.93;;;;;;;2.25;85.06;98908.94;1813804;78;20984;-39
2022/12/17 17:19:00;;;;;;;1.42;1.25;;;;;;;2.25;85.07;98913.50;1813672;79;21495;-39
2022/12/17 17:21:33;;;;;;;1.37;1.27;;;;;;;2.25;84.93;98912.95;1813691;78;20993;-39
2022/12/17 17:24:03;;;;;;;1.60;1.10;;;;;;;2.18;85.16;98909.95;1813973;79;21812;-39
2022/12/17 17:26:31;;;;;;;1.25;1.00;;;;;;;2.13;85.18;98916.81;1813853;78;21016;-39
2022/12/17 17:28:57;;;;;;;1.17;1.00;;;;;;;2.09;85.29;98927.33;1814146;79;20949;-39
2022/12/17 17:31:24;;;;;;;1.27;1.17;;;;;;;2.10;85.10;98920.89;1813583;79;21521;-39
2022/12/17 17:33:51;;;;;;;1.12;1.02;;;;;;;2.13;85.02;98919.49;1813836;79;21090;-39
2022/12/17 17:36:24;;;;;;;1.45;1.35;;;;;;;2.11;85.03;98911.77;1807199;79;21185;-39
2022/12/17 17:38:51;;;;;;;1.17;1.05;;;;;;;2.06;84.96;98903.91;1804601;79;20979;-39
2022/12/17 17:41:20;;;;;;;1.50;1.20;;;;;;;2.05;84.91;98909.02;1804991;79;21004;-39
2022/12/17 17:43:52;;;;;;;2.42;1.10;;;;;;;2.07;84.53;98913.51;1804626;79;21030;-39
2022/12/17 17:46:19;;;;;;;1.00;0.90;;;;;;;2.10;84.38;98908.86;1805063;79;20965;-39
2022/12/17 17:48:47;;;;;;;1.20;1.10;;;;;;;2.06;84.19;98909.80;1804737;79;21228;-39
2022/12/17 17:51:20;;;;;;;1.40;0.90;;;;;;;1.97;84.22;98919.16;1804500;79;21467;-39
2022/12/17 17:53:49;;;;;;;1.22;1.00;;;;;;;1.93;84.24;98930.80;1804747;79;21581;-39
2022/12/17 17:56:19;;;;;;;1.30;0.95;;;;;;;1.94;84.14;98942.48;1805025;79;21021;-39
2022/12/17 17:58:56;;;;;;;1.00;0.90;;;;;;;1.91;84.12;98951.14;1805161;79;21033;-39
2022/12/17 18:01:29;;;;;;;1.42;0.70;;;;;;;1.84;84.26;98960.16;1804813;79;21179;-39
2022/12/17 18:03:58;;;;;;;1.07;0.80;;;;;;;1.78;84.51;98958.75;1804633;79;21070;-39
2022/12/17 21:36:22;;;;;;;10.82;8.43;;;;;;;0.54;86.75;99375.94;1825803;77;21971;-39
2022/12/17 21:38:49;;;;;;;9.83;8.08;;;;;;;0.60;85.14;99382.78;1779845;80;20995;-38
2022/12/17 21:41:20;;;;;;;12.55;8.83;;;;;;;0.49;85.07;99396.03;1794515;80;21516;-39
2022/12/17 21:43:46;;;;;;;;;;;;;;;0.37;83.63;99397.30;1797177;80;21557;-39
2022/12/17 21:46:13;;;;;;;12.53;8.40;;;;;;;0.32;83.59;99407.25;1794805;80;20449;-38
2022/12/17 21:48:41;;;;;;;12.13;8.48;;;;;;;0.22;83.57;99409.53;1794573;80;20901;-38
2022/12/17 21:51:09;;;;;;;12.15;9.48;;;;;;;0.18;83.46;99411.20;1794532;80;20971;-39
2022/12/17 21:53:42;;;;;;;12.65;9.73;;;;;;;0.14;83.50;99414.20;1794505;80;26238;-39
2022/12/17 21:56:14;;;;;;;13.70;9.80;;;;;;;0.14;83.49;99424.86;1794586;80;20937;-38
2022/12/17 21:58:42;;;;;;;15.10;10.95;;;;;;;0.19;83.56;99429.32;1794143;80;21490;-38
2022/12/17 22:01:21;;;;;;;15.88;10.82;;;;;;;0.16;83.43;99434.67;1794637;80;20944;-39
2022/12/17 22:03:48;;;;;;;14.03;9.83;;;;;;;0.16;83.71;99439.20;1794740;80;21019;-39
2022/12/17 22:06:17;;;;;;;18.32;11.65;;;;;;;0.20;83.71;99447.67;1794277;80;21237;-39
2022/12/17 22:08:44;;;;;;;18.55;13.18;;;;;;;0.22;83.37;99456.19;1794518;80;20924;-39
2022/12/17 22:11:12;;;;;;;15.98;11.35;;;;;;;0.20;83.50;99454.88;1794351;80;21010;-39
2022/12/17 22:16:27;;;;;;;18.95;12.20;;;;;;;0.13;82.87;99471.78;1794490;80;21008;-39
2022/12/17 22:18:54;;;;;;;18.48;12.23;;;;;;;0.15;83.13;99471.73;1794448;80;21085;-39
2022/12/17 22:21:21;;;;;;;20.15;13.00;;;;;;;0.12;82.25;99478.19;1788151;80;21000;-39
2022/12/17 22:23:48;;;;;;;17.00;11.73;;;;;;;0.02;81.02;99472.45;1794508;80;21533;-39
2022/12/17 22:26:18;;;;;;;19.20;12.75;;;;;;;-0.02;80.71;99475.45;1794669;80;20930;-39
2022/12/17 22:28:48;;;;;;;20.27;12.55;;;;;;;-0.10;80.34;99478.77;1794466;80;21012;-39
2022/12/17 22:34:04;;;;;;;19.37;13.55;;;;;;;-0.24;80.49;99487.97;1794586;80;20916;-39
2022/12/17 22:36:32;;;;;;;;;;;;;;;-0.27;80.69;99495.20;1796800;79;21011;-39
2022/12/17 22:39:04;;;;;;;20.20;13.20;;;;;;;-0.26;80.42;99500.80;1794504;80;20092;-39
2022/12/17 22:44:16;;;;;;;21.20;13.18;;;;;;;-0.34;80.55;99515.28;1793774;80;23229;-38
2022/12/17 22:46:43;;;;;;;21.60;13.62;;;;;;;-0.37;80.81;99519.83;1793748;80;20937;-38
2022/12/17 22:49:09;;;;;;;20.88;13.38;;;;;;;-0.38;80.22;99518.23;1793984;80;20889;-39
2022/12/17 22:51:36;;;;;;;20.92;14.10;;;;;;;-0.41;80.01;99530.80;1793815;80;21115;-39
2022/12/17 22:54:04;;;;;;;20.48;13.88;;;;;;;-0.44;79.80;99535.60;1793805;80;21494;-39
